Time;durP1;ratioP1;P1;durP2;ratioP2;P2;SDS_P1;SDS_P2;PMS_P1;PMS_P2;Temp;Humidity;BMP_temperature;BMP_pressure;BME280_temperature;BME280_humidity;BME280_pressure;Samples;Min_cycle;Max_cycle;Signal;HPM_P1;HPM_P2
2021/12/05 00:23:16;;;;;;;27.70;3.83;;;;;;;;;;5092298;28;20028;-82
2021/12/05 00:25:47;;;;;;;12.98;3.38;;;;;;;;;;5092325;28;20028;-82
2021/12/05 00:33:56;;;;;;;7.68;2.50;;;;;;;;;;5091577;28;20111;-79
2021/12/05 00:50:18;;;;;;;9.98;3.45;;;;;;;;;;5096705;28;20020;-83
2021/12/05 01:16:40;;;;;;;12.95;2.55;;;;;;;;;;5077418;28;20426;-83
2021/12/05 01:19:07;;;;;;;16.45;2.40;;;;;;;;;;5092127;28;20075;-81
2021/12/05 01:21:35;;;;;;;7.38;2.45;;;;;;;;;;5096775;28;20020;-83
2021/12/05 01:27:14;;;;;;;6.65;2.38;;;;;;;;;;5100665;28;20058;-79
2021/12/05 01:29:52;;;;;;;14.18;2.88;;;;;;;;;;5085848;28;20027;-80
2021/12/05 01:39:57;;;;;;;9.18;2.90;;;;;;;;;;5097284;28;20036;-84
2021/12/05 01:50:57;;;;;;;9.40;2.38;;;;;;;;;;5103172;28;20043;-82
2021/12/05 02:35:40;;;;;;;10.55;2.33;;;;;;;;;;5095927;28;20028;-82
2021/12/05 02:43:37;;;;;;;2.63;1.80;;;;;;;;;;5095077;28;20051;-83
2021/12/05 02:46:03;;;;;;;9.80;2.20;;;;;;;;;;5094344;28;20032;-82
2021/12/05 02:48:32;;;;;;;13.65;2.28;;;;;;;;;;5095057;28;20019;-81
2021/12/05 02:51:00;;;;;;;5.53;2.10;;;;;;;;;;5094760;28;20402;-83
2021/12/05 02:53:36;;;;;;;12.02;2.22;;;;;;;;;;5094659;28;20048;-82
2021/12/05 02:56:03;;;;;;;5.60;1.95;;;;;;;;;;5094975;28;20023;-79
2021/12/05 03:03:30;;;;;;;8.10;2.10;;;;;;;;;;5095817;28;20034;-80
2021/12/05 03:06:03;;;;;;;14.82;2.15;;;;;;;;;;5095006;28;20536;-81
2021/12/05 03:08:29;;;;;;;9.07;2.40;;;;;;;;;;5076514;28;20027;-82
2021/12/05 03:10:57;;;;;;;8.10;2.08;;;;;;;;;;5093964;28;20021;-82
2021/12/05 03:13:23;;;;;;;5.18;1.63;;;;;;;;;;5094394;28;20019;-82
2021/12/05 03:15:50;;;;;;;5.78;1.65;;;;;;;;;;5075980;28;20126;-82
2021/12/05 03:18:16;;;;;;;8.15;1.98;;;;;;;;;;5094053;28;20022;-80
2021/12/05 03:20:42;;;;;;;2.70;1.63;;;;;;;;;;5094064;28;20044;-80
2021/12/05 03:25:43;;;;;;;6.25;1.67;;;;;;;;;;4976447;28;20059;-86
2021/12/05 03:28:09;;;;;;;5.22;1.90;;;;;;;;;;4976856;28;20027;-85
2021/12/05 03:30:36;;;;;;;6.07;2.22;;;;;;;;;;4976471;28;20023;-85
2021/12/05 03:33:02;;;;;;;4.07;1.33;;;;;;;;;;4977317;28;20375;-85
2021/12/05 03:35:29;;;;;;;5.72;2.00;;;;;;;;;;4977966;28;20034;-85
2021/12/05 03:37:55;;;;;;;10.13;1.80;;;;;;;;;;4977071;28;20460;-84
2021/12/05 03:40:23;;;;;;;4.13;1.55;;;;;;;;;;4976789;28;20402;-81
2021/12/05 03:42:50;;;;;;;3.95;1.60;;;;;;;;;;4978404;28;20034;-84
2021/12/05 03:45:19;;;;;;;4.30;1.27;;;;;;;;;;4977624;28;20027;-85
2021/12/05 03:47:45;;;;;;;6.30;1.30;;;;;;;;;;4976860;28;20023;-84
2021/12/05 03:50:11;;;;;;;4.03;1.27;;;;;;;;;;4977050;28;20027;-84
2021/12/05 03:52:38;;;;;;;2.17;1.30;;;;;;;;;;4975647;28;20049;-87
2021/12/05 03:55:05;;;;;;;5.43;1.20;;;;;;;;;;4975532;28;20038;-85
2021/12/05 03:57:31;;;;;;;1.42;1.23;;;;;;;;;;4974680;28;20033;-85
2021/12/05 03:59:57;;;;;;;3.58;1.70;;;;;;;;;;4976404;28;20076;-85
2021/12/05 04:02:23;;;;;;;1.20;1.05;;;;;;;;;;4976614;28;20034;-85
2021/12/05 04:04:50;;;;;;;3.28;1.30;;;;;;;;;;4975880;28;20030;-84
2021/12/05 04:07:16;;;;;;;2.50;1.27;;;;;;;;;;4976284;28;20046;-86
2021/12/05 04:09:42;;;;;;;5.65;1.50;;;;;;;;;;4991149;28;20034;-85
2021/12/05 04:12:09;;;;;;;3.92;1.23;;;;;;;;;;4975956;28;20019;-85
2021/12/05 04:14:37;;;;;;;3.13;1.10;;;;;;;;;;4976454;28;20090;-85
2021/12/05 04:17:04;;;;;;;2.30;1.10;;;;;;;;;;4975263;28;20030;-84
2021/12/05 04:19:30;;;;;;;4.22;1.50;;;;;;;;;;4976220;28;20061;-85
2021/12/05 04:21:57;;;;;;;4.72;1.52;;;;;;;;;;4992894;28;20118;-84
2021/12/05 04:24:23;;;;;;;4.32;1.48;;;;;;;;;;4978395;28;20401;-85
2021/12/05 04:26:50;;;;;;;7.60;1.35;;;;;;;;;;4994726;28;20037;-85
2021/12/05 04:29:16;;;;;;;5.22;1.40;;;;;;;;;;4979208;28;20046;-85
2021/12/05 04:31:42;;;;;;;2.58;1.05;;;;;;;;;;4979419;28;20031;-83
2021/12/05 04:34:08;;;;;;;7.50;2.92;;;;;;;;;;4993118;28;20627;-85
2021/12/05 04:36:35;;;;;;;4.07;1.13;;;;;;;;;;4993916;28;20457;-86
2021/12/05 04:39:01;;;;;;;1.92;1.33;;;;;;;;;;4994347;28;20027;-86
2021/12/05 04:41:27;;;;;;;6.00;1.88;;;;;;;;;;5001480;28;20131;-85
2021/12/05 04:43:54;;;;;;;6.65;1.88;;;;;;;;;;5001097;28;20031;-85
2021/12/05 04:46:23;;;;;;;6.25;1.83;;;;;;;;;;4985040;28;20403;-87
2021/12/05 04:48:51;;;;;;;2.67;1.70;;;;;;;;;;4993564;28;20109;-85
2021/12/05 04:51:18;;;;;;;8.95;1.75;;;;;;;;;;4992908;28;20029;-86
2021/12/05 04:53:45;;;;;;;11.32;2.20;;;;;;;;;;5008049;28;20023;-85
2021/12/05 04:56:11;;;;;;;8.40;1.88;;;;;;;;;;4992778;28;20038;-85
2021/12/05 04:58:37;;;;;;;8.85;1.70;;;;;;;;;;4991100;28;20023;-85
2021/12/05 05:01:04;;;;;;;8.85;2.30;;;;;;;;;;5001930;28;20033;-87
2021/12/05 05:03:31;;;;;;;3.70;2.00;;;;;;;;;;4986665;28;20026;-87
2021/12/05 05:06:17;;;;;;;10.18;2.22;;;;;;;;;;4986597;28;20117;-88
2021/12/05 05:08:44;;;;;;;9.55;2.47;;;;;;;;;;4987312;28;20030;-86
2021/12/05 05:11:11;;;;;;;12.07;2.35;;;;;;;;;;4986476;28;20027;-86
2021/12/05 05:13:38;;;;;;;5.57;2.35;;;;;;;;;;4986128;28;20030;-85
2021/12/05 05:16:06;;;;;;;11.27;2.22;;;;;;;;;;4993518;28;20047;-85
2021/12/05 05:18:54;;;;;;;7.85;2.10;;;;;;;;;;4993665;28;20019;-87
2021/12/05 05:40:07;;;;;;;7.65;2.20;;;;;;;;;;4965483;29;20085;-87
2021/12/05 05:45:42;;;;;;;6.00;2.42;;;;;;;;;;4990027;28;20065;-87
2021/12/05 05:50:37;;;;;;;10.00;2.50;;;;;;;;;;5003951;28;20034;-87
2021/12/05 05:53:03;;;;;;;4.78;1.70;;;;;;;;;;5003754;28;20108;-86
2021/12/05 05:55:30;;;;;;;6.85;2.10;;;;;;;;;;5002560;28;20034;-85
2021/12/05 06:00:38;;;;;;;9.75;2.20;;;;;;;;;;5003528;28;20030;-86
2021/12/05 06:03:22;;;;;;;5.03;2.10;;;;;;;;;;5001661;28;20022;-86
2021/12/05 06:05:53;;;;;;;4.32;2.28;;;;;;;;;;5002739;28;20105;-85
2021/12/05 06:08:23;;;;;;;4.55;2.13;;;;;;;;;;5000875;28;20018;-86
2021/12/05 06:10:49;;;;;;;4.53;1.90;;;;;;;;;;5003108;28;20046;-86
2021/12/05 06:13:18;;;;;;;9.75;2.08;;;;;;;;;;4993812;28;20011;-87
2021/12/05 06:15:44;;;;;;;10.25;2.70;;;;;;;;;;4996155;28;20011;-87
2021/12/05 06:18:10;;;;;;;6.50;2.20;;;;;;;;;;5008262;28;20031;-87
2021/12/05 06:20:36;;;;;;;11.25;2.55;;;;;;;;;;4984814;28;20031;-87
2021/12/05 06:23:02;;;;;;;10.70;2.28;;;;;;;;;;4985746;28;20031;-88
2021/12/05 06:25:30;;;;;;;8.77;2.30;;;;;;;;;;4998650;28;20102;-87
2021/12/05 06:28:00;;;;;;;7.55;1.77;;;;;;;;;;4984193;28;20667;-87
2021/12/05 06:47:04;;;;;;;6.03;2.30;;;;;;;;;;4974892;28;20107;-85
2021/12/05 06:49:30;;;;;;;5.47;2.33;;;;;;;;;;4994093;28;20019;-85
2021/12/05 06:51:56;;;;;;;6.25;2.15;;;;;;;;;;4981468;28;20683;-86
2021/12/05 06:54:22;;;;;;;4.28;2.53;;;;;;;;;;4981301;28;20708;-86
2021/12/05 06:56:49;;;;;;;6.43;1.98;;;;;;;;;;4981971;28;20031;-86
2021/12/05 06:59:15;;;;;;;4.93;1.75;;;;;;;;;;4996474;28;20037;-86
2021/12/05 07:01:41;;;;;;;4.63;2.42;;;;;;;;;;4996324;28;20034;-86
2021/12/05 07:04:31;;;;;;;5.00;2.17;;;;;;;;;;4994288;28;20039;-86
2021/12/05 07:06:53;;;;;;;10.95;2.70;;;;;;;;;;4980737;28;20035;-86
2021/12/05 07:09:19;;;;;;;8.30;1.77;;;;;;;;;;4995068;28;20064;-87
2021/12/05 07:21:56;;;;;;;10.32;2.65;;;;;;;;;;4979723;28;20039;-83
2021/12/05 07:24:37;;;;;;;8.43;2.35;;;;;;;;;;4976545;28;20035;-86
2021/12/05 07:40:19;;;;;;;13.20;2.65;;;;;;;;;;4994603;28;20027;-86
2021/12/05 07:40:51;;;;;;;8.82;3.03;;;;;;;;;;4979094;28;20045;-88
2021/12/05 07:43:17;;;;;;;3.17;2.00;;;;;;;;;;4978859;28;20395;-85
2021/12/05 07:45:51;;;;;;;6.90;2.08;;;;;;;;;;4978510;28;20035;-87
2021/12/05 07:48:21;;;;;;;5.57;1.77;;;;;;;;;;4993159;28;20409;-88
2021/12/05 07:51:05;;;;;;;1.60;1.13;;;;;;;;;;4978576;28;20029;-85
2021/12/05 07:53:39;;;;;;;3.40;1.70;;;;;;;;;;4978322;28;20026;-85
2021/12/05 07:56:15;;;;;;;9.30;2.92;;;;;;;;;;4992247;28;20051;-86
2021/12/05 07:58:53;;;;;;;3.17;1.73;;;;;;;;;;4979154;28;20023;-86
2021/12/05 08:17:36;;;;;;;3.15;1.63;;;;;;;;;;4981435;28;20035;-87
2021/12/05 08:20:02;;;;;;;2.75;1.67;;;;;;;;;;4995477;28;20049;-87
2021/12/05 08:22:28;;;;;;;2.58;1.70;;;;;;;;;;4980912;28;20027;-85
2021/12/05 08:24:56;;;;;;;5.38;1.80;;;;;;;;;;4994320;28;20041;-89
2021/12/05 08:27:22;;;;;;;1.83;1.55;;;;;;;;;;4980088;28;20027;-86
2021/12/05 08:29:53;;;;;;;4.72;1.42;;;;;;;;;;4979710;28;20106;-85
2021/12/05 08:32:32;;;;;;;5.03;1.70;;;;;;;;;;4978032;28;20388;-87
2021/12/05 08:40:42;;;;;;;7.93;2.33;;;;;;;;;;4979593;28;20046;-85
2021/12/05 09:50:54;;;;;;;2.75;1.52;;;;;;;;;;4975597;28;20084;-86
2021/12/05 10:03:03;;;;;;;1.40;1.30;;;;;;;;;;4975049;28;20034;-85
2021/12/05 10:17:31;;;;;;;6.32;1.60;;;;;;;;;;4973461;28;20474;-85
2021/12/05 10:26:29;;;;;;;2.58;1.20;;;;;;;;;;4955675;28;20089;-86
2021/12/05 10:35:10;;;;;;;4.03;1.30;;;;;;;;;;4974386;28;20069;-84
2021/12/05 10:37:30;;;;;;;2.55;1.25;;;;;;;;;;4976087;28;20441;-86
2021/12/05 10:40:02;;;;;;;2.70;1.08;;;;;;;;;;4974364;28;20026;-85
2021/12/05 10:42:39;;;;;;;1.20;0.82;;;;;;;;;;4974912;28;20061;-84
2021/12/05 10:45:09;;;;;;;2.45;1.20;;;;;;;;;;4978438;28;20061;-83
2021/12/05 10:47:46;;;;;;;3.20;1.58;;;;;;;;;;4977375;28;20053;-83
2021/12/05 10:50:30;;;;;;;1.73;1.00;;;;;;;;;;4979538;28;20015;-84
2021/12/05 10:53:15;;;;;;;2.35;1.10;;;;;;;;;;4989577;28;20022;-86
2021/12/05 10:55:41;;;;;;;3.40;2.15;;;;;;;;;;4995816;28;20017;-84
2021/12/05 10:58:07;;;;;;;2.00;1.30;;;;;;;;;;4995003;28;20034;-87
2021/12/05 11:00:33;;;;;;;3.22;1.38;;;;;;;;;;4996212;28;20015;-87
2021/12/05 11:03:16;;;;;;;2.03;1.17;;;;;;;;;;4996599;28;20046;-87
2021/12/05 11:05:53;;;;;;;4.43;1.17;;;;;;;;;;4996103;28;20038;-87
2021/12/05 11:08:31;;;;;;;1.92;1.38;;;;;;;;;;4998121;28;20050;-86
2021/12/05 11:11:08;;;;;;;2.35;1.50;;;;;;;;;;5002576;28;20015;-87
2021/12/05 11:13:35;;;;;;;2.45;1.30;;;;;;;;;;5020308;28;20022;-88
2021/12/05 11:16:04;;;;;;;1.20;1.10;;;;;;;;;;5005469;28;20015;-88
2021/12/05 11:18:41;;;;;;;2.58;1.27;;;;;;;;;;5067926;28;20007;-89
2021/12/05 11:21:30;;;;;;;3.83;1.50;;;;;;;;;;5029348;28;20027;-89
2021/12/05 11:24:04;;;;;;;2.15;1.17;;;;;;;;;;5079773;28;20024;-86
2021/12/05 11:26:30;;;;;;;2.75;1.40;;;;;;;;;;5037483;28;20015;-87
2021/12/05 11:28:57;;;;;;;3.58;1.27;;;;;;;;;;4994218;28;20026;-86
2021/12/05 11:31:27;;;;;;;2.97;1.27;;;;;;;;;;4993178;28;20031;-86
2021/12/05 11:33:55;;;;;;;5.88;1.25;;;;;;;;;;4992506;28;20031;-86
2021/12/05 11:36:25;;;;;;;4.93;1.38;;;;;;;;;;5007676;28;20035;-87
2021/12/05 11:38:51;;;;;;;3.80;1.13;;;;;;;;;;4995384;28;20057;-88
2021/12/05 11:41:20;;;;;;;5.68;1.50;;;;;;;;;;5011058;28;20038;-90
2021/12/05 11:44:00;;;;;;;1.73;1.10;;;;;;;;;;5010477;28;20015;-89
2021/12/05 11:46:29;;;;;;;2.65;1.30;;;;;;;;;;5011152;28;20023;-88
2021/12/05 11:48:55;;;;;;;2.92;1.35;;;;;;;;;;5010901;28;20072;-89
2021/12/05 11:51:24;;;;;;;2.60;1.27;;;;;;;;;;4994220;28;20015;-89
2021/12/05 11:54:05;;;;;;;4.90;1.30;;;;;;;;;;4995735;28;20035;-89
2021/12/05 11:56:31;;;;;;;2.10;1.20;;;;;;;;;;5010938;28;20050;-88
2021/12/05 11:59:09;;;;;;;2.72;1.08;;;;;;;;;;4995238;28;20065;-88
2021/12/05 12:01:36;;;;;;;2.70;1.20;;;;;;;;;;4995701;28;20034;-90
2021/12/05 12:04:03;;;;;;;2.40;1.17;;;;;;;;;;5010861;28;20015;-90
2021/12/05 12:06:29;;;;;;;1.75;1.05;;;;;;;;;;5011440;28;20031;-89
2021/12/05 12:08:55;;;;;;;1.65;1.02;;;;;;;;;;4992256;28;20042;-85
2021/12/05 12:11:22;;;;;;;6.35;1.30;;;;;;;;;;4984168;28;20023;-85
2021/12/05 12:13:49;;;;;;;1.67;0.98;;;;;;;;;;4983451;28;20470;-87
2021/12/05 12:16:16;;;;;;;6.80;1.73;;;;;;;;;;4974636;28;20034;-85
2021/12/05 12:18:45;;;;;;;1.90;1.33;;;;;;;;;;4975487;28;20043;-83
2021/12/05 12:21:13;;;;;;;1.58;1.08;;;;;;;;;;4978747;28;20093;-85
2021/12/05 12:23:40;;;;;;;2.05;1.10;;;;;;;;;;4980408;28;20042;-85
2021/12/05 12:26:07;;;;;;;2.95;1.50;;;;;;;;;;4994519;28;20035;-88
2021/12/05 12:28:33;;;;;;;1.00;0.90;;;;;;;;;;4979034;28;20034;-85
2021/12/05 12:31:03;;;;;;;2.42;1.73;;;;;;;;;;4979680;28;20046;-85
2021/12/05 12:33:34;;;;;;;1.10;1.05;;;;;;;;;;4977799;28;20470;-86
2021/12/05 12:36:00;;;;;;;4.65;1.30;;;;;;;;;;4978398;28;20445;-85
2021/12/05 12:38:34;;;;;;;5.93;1.95;;;;;;;;;;4977923;28;20126;-86
2021/12/05 12:41:02;;;;;;;1.95;1.50;;;;;;;;;;4974924;28;20034;-85
2021/12/05 12:43:34;;;;;;;2.15;1.40;;;;;;;;;;4979690;28;20467;-85
2021/12/05 12:46:14;;;;;;;5.20;1.60;;;;;;;;;;4977202;28;20054;-85
2021/12/05 12:48:40;;;;;;;5.47;1.33;;;;;;;;;;4975100;28;20429;-85
2021/12/05 12:51:06;;;;;;;6.38;1.55;;;;;;;;;;4978341;28;20022;-85
2021/12/05 12:53:39;;;;;;;4.45;1.40;;;;;;;;;;4982527;28;20023;-86
2021/12/05 12:56:17;;;;;;;4.32;1.50;;;;;;;;;;4982397;28;20110;-87
2021/12/05 12:58:49;;;;;;;4.20;1.48;;;;;;;;;;4982384;28;20031;-86
2021/12/05 13:01:19;;;;;;;4.90;2.20;;;;;;;;;;4981691;28;20022;-88
2021/12/05 13:04:27;;;;;;;5.85;1.52;;;;;;;;;;4980276;28;20031;-87
2021/12/05 13:12:32;;;;;;;2.33;1.25;;;;;;;;;;4976791;28;20046;-85
2021/12/05 13:15:22;;;;;;;3.22;1.50;;;;;;;;;;4975343;28;20389;-85
2021/12/05 13:17:50;;;;;;;4.70;1.92;;;;;;;;;;4975840;28;20375;-86
2021/12/05 13:20:18;;;;;;;5.80;1.90;;;;;;;;;;4991094;28;20054;-86
2021/12/05 13:23:01;;;;;;;2.33;1.65;;;;;;;;;;4977795;28;20026;-86
2021/12/05 13:25:28;;;;;;;3.10;1.50;;;;;;;;;;4980418;28;20073;-86
2021/12/05 13:27:55;;;;;;;2.15;1.65;;;;;;;;;;4982864;28;20034;-87
2021/12/05 13:30:28;;;;;;;3.65;1.40;;;;;;;;;;4980719;28;20034;-86
2021/12/05 13:33:13;;;;;;;7.05;1.70;;;;;;;;;;4977638;28;20023;-86
2021/12/05 13:35:40;;;;;;;4.63;1.88;;;;;;;;;;4979303;28;20378;-86
2021/12/05 13:38:06;;;;;;;4.20;1.85;;;;;;;;;;4977812;28;20034;-85
2021/12/05 13:40:33;;;;;;;5.05;1.55;;;;;;;;;;4980055;28;20027;-85
2021/12/05 13:43:05;;;;;;;2.25;1.30;;;;;;;;;;4975875;28;20164;-85
2021/12/05 13:45:39;;;;;;;2.75;1.60;;;;;;;;;;4978037;28;20035;-85
2021/12/05 13:48:10;;;;;;;3.22;1.70;;;;;;;;;;4978021;28;20482;-85
2021/12/05 13:50:38;;;;;;;2.90;1.73;;;;;;;;;;4980315;28;20037;-85
2021/12/05 13:53:05;;;;;;;3.90;1.73;;;;;;;;;;4979120;28;20099;-84
2021/12/05 13:55:43;;;;;;;3.97;1.63;;;;;;;;;;4978188;28;20062;-85
2021/12/05 13:58:24;;;;;;;3.80;1.50;;;;;;;;;;4977807;28;20098;-85
2021/12/05 14:00:59;;;;;;;1.70;1.10;;;;;;;;;;4977575;28;20023;-85
2021/12/05 14:03:37;;;;;;;6.90;1.73;;;;;;;;;;4980543;28;20055;-85
2021/12/05 14:06:03;;;;;;;5.35;1.70;;;;;;;;;;4981564;28;20371;-85
2021/12/05 14:08:30;;;;;;;7.20;1.83;;;;;;;;;;4979972;28;20076;-87
2021/12/05 14:10:56;;;;;;;5.22;1.52;;;;;;;;;;4979886;28;20037;-86
2021/12/05 14:13:22;;;;;;;4.35;1.88;;;;;;;;;;4979645;28;20449;-86
2021/12/05 14:15:57;;;;;;;3.75;1.77;;;;;;;;;;4994545;28;20031;-88
2021/12/05 14:18:24;;;;;;;5.15;1.63;;;;;;;;;;4995334;28;20049;-86
2021/12/05 14:20:50;;;;;;;4.90;1.77;;;;;;;;;;4980369;28;20039;-86
2021/12/05 14:23:22;;;;;;;5.03;2.13;;;;;;;;;;4978091;28;20037;-86
2021/12/05 14:25:48;;;;;;;1.58;1.17;;;;;;;;;;4979443;28;20405;-86
2021/12/05 14:28:14;;;;;;;6.50;1.40;;;;;;;;;;4998590;28;20072;-84
2021/12/05 14:30:42;;;;;;;4.90;1.38;;;;;;;;;;4995501;28;20183;-86
2021/12/05 14:33:07;;;;;;;3.03;1.20;;;;;;;;;;4980347;28;20027;-86
2021/12/05 14:35:39;;;;;;;5.18;1.20;;;;;;;;;;4977744;28;20084;-86
2021/12/05 14:38:06;;;;;;;1.77;1.13;;;;;;;;;;4993701;28;20066;-87
2021/12/05 14:40:34;;;;;;;3.20;1.48;;;;;;;;;;4977232;28;20042;-84
2021/12/05 14:43:03;;;;;;;1.73;1.10;;;;;;;;;;4976322;28;20028;-86
2021/12/05 14:45:30;;;;;;;2.75;1.40;;;;;;;;;;4991059;28;20051;-86
2021/12/05 14:48:02;;;;;;;4.78;1.52;;;;;;;;;;4976184;28;20037;-86
2021/12/05 14:50:32;;;;;;;4.22;1.73;;;;;;;;;;4977264;28;20019;-86
2021/12/05 14:53:00;;;;;;;4.70;1.40;;;;;;;;;;4991599;28;20031;-85
2021/12/05 14:55:28;;;;;;;1.40;1.17;;;;;;;;;;4991286;28;20033;-85
2021/12/05 14:57:56;;;;;;;3.75;1.67;;;;;;;;;;4975740;28;20031;-84
2021/12/05 15:00:49;;;;;;;3.45;1.60;;;;;;;;;;4990071;28;20035;-86
2021/12/05 15:03:24;;;;;;;1.52;1.30;;;;;;;;;;4975115;28;20490;-87
2021/12/05 15:05:53;;;;;;;1.95;1.17;;;;;;;;;;4974194;28;20054;-86
2021/12/05 15:08:48;;;;;;;2.40;0.98;;;;;;;;;;4989893;28;20039;-86
2021/12/05 15:11:14;;;;;;;2.47;1.00;;;;;;;;;;4998640;28;20114;-85
2021/12/05 15:13:43;;;;;;;1.30;1.00;;;;;;;;;;4984479;28;20068;-85
2021/12/05 15:16:12;;;;;;;1.95;0.93;;;;;;;;;;5000929;28;20057;-84
2021/12/05 15:18:39;;;;;;;2.58;0.98;;;;;;;;;;4986422;28;20023;-82
2021/12/05 15:21:05;;;;;;;2.17;1.20;;;;;;;;;;4986179;28;20031;-83
2021/12/05 15:23:32;;;;;;;4.32;1.58;;;;;;;;;;4981376;28;20027;-86
2021/12/05 15:25:59;;;;;;;6.13;2.22;;;;;;;;;;4991093;28;20037;-82
2021/12/05 15:28:25;;;;;;;2.95;1.58;;;;;;;;;;4977287;28;20031;-85
2021/12/05 15:30:51;;;;;;;4.78;1.85;;;;;;;;;;4976332;28;20037;-85
2021/12/05 15:33:22;;;;;;;5.18;1.90;;;;;;;;;;4975546;28;20034;-84
2021/12/05 15:35:49;;;;;;;4.25;1.65;;;;;;;;;;4976501;28;20474;-83
2021/12/05 15:38:23;;;;;;;3.60;1.80;;;;;;;;;;4975242;28;20034;-82
2021/12/05 15:40:50;;;;;;;2.17;1.60;;;;;;;;;;4976181;28;20026;-82
2021/12/05 15:43:18;;;;;;;2.80;1.55;;;;;;;;;;4976761;28;20037;-82
2021/12/05 15:45:45;;;;;;;2.60;1.38;;;;;;;;;;4977489;28;20027;-82
2021/12/05 15:48:11;;;;;;;1.33;1.10;;;;;;;;;;4976131;28;20042;-83
2021/12/05 15:50:39;;;;;;;3.83;1.17;;;;;;;;;;4974925;28;20030;-83
2021/12/05 15:53:06;;;;;;;2.08;1.30;;;;;;;;;;4976302;28;20027;-82
2021/12/05 15:55:35;;;;;;;2.45;1.63;;;;;;;;;;4977347;28;20106;-84
2021/12/05 15:58:09;;;;;;;2.05;1.45;;;;;;;;;;5007548;28;20038;-83
2021/12/05 16:00:40;;;;;;;3.90;1.65;;;;;;;;;;4975004;28;20041;-83
2021/12/05 16:03:08;;;;;;;5.10;1.92;;;;;;;;;;4975596;28;20069;-85
2021/12/05 16:05:35;;;;;;;3.53;1.70;;;;;;;;;;4973853;28;20027;-85
2021/12/05 16:08:03;;;;;;;3.92;1.75;;;;;;;;;;5101805;22;20046;-86
2021/12/05 16:10:31;;;;;;;1.77;1.58;;;;;;;;;;4970015;28;20110;-87
2021/12/05 16:13:07;;;;;;;1.98;1.75;;;;;;;;;;4965366;28;20027;-86
2021/12/05 16:15:33;;;;;;;5.03;1.88;;;;;;;;;;4961855;28;20027;-86
2021/12/05 16:18:01;;;;;;;3.22;1.67;;;;;;;;;;4956807;28;20081;-86
2021/12/05 16:20:44;;;;;;;3.97;1.60;;;;;;;;;;4965015;28;20039;-87
2021/12/05 16:23:20;;;;;;;4.10;1.67;;;;;;;;;;4947599;29;20034;-86
2021/12/05 16:26:09;;;;;;;3.33;1.40;;;;;;;;;;4974101;28;20038;-85
2021/12/05 16:28:40;;;;;;;2.33;1.70;;;;;;;;;;4964658;28;20110;-85
2021/12/05 16:31:13;;;;;;;2.20;1.17;;;;;;;;;;4964299;28;20058;-83
2021/12/05 16:33:39;;;;;;;2.97;1.30;;;;;;;;;;4981765;28;20023;-84
2021/12/05 16:36:06;;;;;;;2.75;1.20;;;;;;;;;;4943873;28;20028;-84
2021/12/05 16:38:37;;;;;;;1.20;1.13;;;;;;;;;;4944113;28;20035;-84
2021/12/05 16:41:03;;;;;;;3.05;1.30;;;;;;;;;;4944180;28;20024;-83
2021/12/05 16:43:30;;;;;;;2.00;1.65;;;;;;;;;;4960789;28;20046;-82
2021/12/05 16:46:04;;;;;;;2.42;1.45;;;;;;;;;;4960133;28;20161;-85
2021/12/05 16:48:30;;;;;;;5.72;2.15;;;;;;;;;;4943881;29;20095;-82
2021/12/05 16:51:09;;;;;;;1.30;1.20;;;;;;;;;;4943019;28;20121;-84
2021/12/05 16:53:35;;;;;;;9.60;1.63;;;;;;;;;;4959916;29;20702;-83
2021/12/05 16:56:03;;;;;;;2.35;1.40;;;;;;;;;;4943777;28;20031;-85
2021/12/05 16:58:29;;;;;;;3.83;1.70;;;;;;;;;;4943396;28;20035;-84
2021/12/05 17:00:55;;;;;;;1.80;1.70;;;;;;;;;;4960614;28;20032;-84
2021/12/05 17:03:23;;;;;;;3.55;1.42;;;;;;;;;;4959834;28;20049;-85
2021/12/05 17:05:51;;;;;;;5.03;2.03;;;;;;;;;;4960135;29;20031;-84
2021/12/05 17:08:17;;;;;;;2.10;1.90;;;;;;;;;;4944075;28;20042;-86
2021/12/05 17:10:59;;;;;;;2.25;1.45;;;;;;;;;;4942454;29;20023;-83
2021/12/05 17:13:35;;;;;;;1.70;1.58;;;;;;;;;;4976535;28;20023;-85
2021/12/05 17:16:19;;;;;;;3.28;1.80;;;;;;;;;;4946239;28;20616;-84
2021/12/05 17:18:57;;;;;;;3.90;1.88;;;;;;;;;;4964975;28;20517;-85
2021/12/05 17:21:25;;;;;;;3.13;1.77;;;;;;;;;;4940857;28;20035;-83
2021/12/05 17:23:53;;;;;;;4.40;1.75;;;;;;;;;;4940858;28;20031;-86
2021/12/05 17:26:22;;;;;;;3.13;1.70;;;;;;;;;;4957990;28;20066;-82
2021/12/05 17:28:54;;;;;;;5.68;1.92;;;;;;;;;;4957383;28;20487;-83
2021/12/05 17:31:29;;;;;;;1.77;1.67;;;;;;;;;;4957699;28;20023;-84
2021/12/05 17:33:56;;;;;;;2.97;2.20;;;;;;;;;;4949642;28;20031;-82
2021/12/05 17:36:37;;;;;;;3.35;1.73;;;;;;;;;;4952068;28;20051;-83
2021/12/05 17:39:14;;;;;;;4.35;2.95;;;;;;;;;;4970270;28;20027;-82
2021/12/05 17:41:41;;;;;;;6.78;3.25;;;;;;;;;;4970568;29;20049;-85
2021/12/05 17:44:09;;;;;;;5.22;3.20;;;;;;;;;;4946697;28;20034;-80
2021/12/05 17:46:36;;;;;;;4.65;3.45;;;;;;;;;;4949552;29;20095;-84
2021/12/05 17:49:03;;;;;;;4.00;2.85;;;;;;;;;;4987679;28;20013;-83
2021/12/05 17:51:37;;;;;;;6.13;4.40;;;;;;;;;;4967060;28;20023;-82
2021/12/05 17:54:03;;;;;;;7.53;3.58;;;;;;;;;;4967449;28;20038;-85
2021/12/05 17:56:39;;;;;;;7.53;3.30;;;;;;;;;;4954260;28;20050;-84
2021/12/05 17:59:13;;;;;;;4.68;3.13;;;;;;;;;;4953518;29;21255;-83
2021/12/05 18:04:25;;;;;;;5.15;3.17;;;;;;;;;;4944425;28;20043;-83
2021/12/05 18:06:51;;;;;;;6.78;3.30;;;;;;;;;;4956138;28;20030;-84
2021/12/05 18:09:17;;;;;;;12.50;3.72;;;;;;;;;;4979672;28;20042;-85
2021/12/05 18:11:43;;;;;;;21.02;3.78;;;;;;;;;;4971400;28;20129;-82
2021/12/05 18:14:10;;;;;;;7.60;3.30;;;;;;;;;;4976925;28;20027;-85
2021/12/05 18:16:36;;;;;;;5.18;3.63;;;;;;;;;;4969019;28;20114;-83
2021/12/05 18:19:07;;;;;;;5.60;3.50;;;;;;;;;;4939949;28;20032;-83
2021/12/05 18:21:37;;;;;;;5.10;3.25;;;;;;;;;;4955852;29;20020;-83
2021/12/05 18:24:04;;;;;;;6.22;3.80;;;;;;;;;;4955488;28;20685;-85
2021/12/05 18:26:30;;;;;;;6.13;3.85;;;;;;;;;;4939134;28;20026;-83
2021/12/05 18:28:56;;;;;;;6.50;3.78;;;;;;;;;;4955722;29;20490;-83
2021/12/05 18:31:25;;;;;;;6.68;3.67;;;;;;;;;;4956333;29;20069;-82
2021/12/05 18:33:54;;;;;;;9.25;3.72;;;;;;;;;;4938859;29;20024;-83
2021/12/05 18:36:20;;;;;;;5.20;3.92;;;;;;;;;;4939301;28;20031;-82
2021/12/05 18:38:47;;;;;;;5.68;3.67;;;;;;;;;;4956812;28;20117;-83
2021/12/05 18:41:15;;;;;;;11.63;4.15;;;;;;;;;;4939574;28;20122;-82
2021/12/05 18:43:42;;;;;;;11.20;3.65;;;;;;;;;;4938207;28;20047;-82
2021/12/05 18:46:09;;;;;;;8.23;3.70;;;;;;;;;;4954913;28;20023;-80
2021/12/05 18:48:35;;;;;;;5.85;3.67;;;;;;;;;;4955459;29;20059;-81
2021/12/05 18:51:02;;;;;;;10.55;4.18;;;;;;;;;;4956894;28;20483;-83
2021/12/05 18:53:28;;;;;;;39.95;5.50;;;;;;;;;;4964091;28;20043;-82
2021/12/05 18:55:54;;;;;;;20.52;5.45;;;;;;;;;;4945019;28;20034;-83
2021/12/05 18:58:23;;;;;;;12.15;6.13;;;;;;;;;;4955342;28;20047;-82
2021/12/05 19:06:27;;;;;;;11.15;6.25;;;;;;;;;;4958388;29;20042;-81
2021/12/05 19:11:46;;;;;;;9.88;4.80;;;;;;;;;;4954976;28;20084;-81
2021/12/05 19:14:17;;;;;;;10.70;5.97;;;;;;;;;;4936369;29;20024;-81
2021/12/05 19:16:44;;;;;;;8.13;4.88;;;;;;;;;;4962561;28;20110;-80
2021/12/05 19:19:10;;;;;;;8.77;4.30;;;;;;;;;;4951052;28;20034;-81
2021/12/05 19:21:37;;;;;;;15.43;3.85;;;;;;;;;;4943408;29;20030;-82
2021/12/05 19:24:04;;;;;;;8.60;4.80;;;;;;;;;;4954589;28;20031;-83
2021/12/05 19:26:30;;;;;;;43.05;6.35;;;;;;;;;;4954384;28;20110;-83
2021/12/05 19:28:58;;;;;;;64.05;5.88;;;;;;;;;;4951633;28;20031;-82
2021/12/05 19:31:25;;;;;;;17.92;4.40;;;;;;;;;;4937028;28;20483;-82
2021/12/05 19:33:51;;;;;;;16.83;5.05;;;;;;;;;;4954343;29;20066;-82
2021/12/05 19:36:19;;;;;;;60.20;5.90;;;;;;;;;;4936083;28;20031;-81
2021/12/05 19:38:46;;;;;;;29.88;6.00;;;;;;;;;;4953436;28;20051;-82
2021/12/05 19:41:14;;;;;;;28.38;6.15;;;;;;;;;;4954961;28;20054;-83
2021/12/05 19:43:40;;;;;;;54.53;6.75;;;;;;;;;;4954309;28;20340;-81
2021/12/05 19:46:08;;;;;;;19.60;5.78;;;;;;;;;;4954662;29;20040;-81
2021/12/05 19:48:34;;;;;;;30.75;6.80;;;;;;;;;;4937698;28;20024;-82
2021/12/05 19:51:02;;;;;;;25.73;5.68;;;;;;;;;;4954986;28;20029;-82
2021/12/05 19:53:29;;;;;;;29.05;6.60;;;;;;;;;;4937365;28;20026;-81
2021/12/05 19:55:55;;;;;;;26.77;4.97;;;;;;;;;;4938724;28;20030;-81
2021/12/05 19:58:21;;;;;;;30.80;6.43;;;;;;;;;;4954158;29;20505;-81
2021/12/05 20:00:47;;;;;;;68.55;5.65;;;;;;;;;;4954481;28;20101;-82
2021/12/05 20:03:13;;;;;;;70.57;5.72;;;;;;;;;;4936531;29;20073;-82
2021/12/05 20:05:40;;;;;;;84.75;5.90;;;;;;;;;;4955055;28;20418;-83
2021/12/05 20:08:08;;;;;;;70.22;6.38;;;;;;;;;;4944555;28;20031;-83
2021/12/05 20:10:36;;;;;;;21.98;6.32;;;;;;;;;;4963682;28;20093;-82
2021/12/05 20:13:03;;;;;;;20.23;7.00;;;;;;;;;;4969462;28;20026;-82
2021/12/05 20:15:30;;;;;;;15.73;5.93;;;;;;;;;;4957110;28;20035;-83
2021/12/05 20:17:57;;;;;;;23.52;6.18;;;;;;;;;;4955483;28;20031;-80
2021/12/05 20:20:23;;;;;;;13.43;6.60;;;;;;;;;;4955620;28;20037;-82
2021/12/05 20:22:50;;;;;;;14.68;6.18;;;;;;;;;;4955289;28;20027;-80
2021/12/05 20:25:16;;;;;;;16.25;6.32;;;;;;;;;;4950428;28;20086;-83
2021/12/05 20:27:43;;;;;;;20.35;7.13;;;;;;;;;;4937061;29;20047;-81
2021/12/05 20:30:10;;;;;;;19.70;7.30;;;;;;;;;;4937135;28;20028;-82
2021/12/05 20:32:37;;;;;;;14.48;6.05;;;;;;;;;;4954318;28;20023;-82
2021/12/05 20:35:07;;;;;;;36.97;6.80;;;;;;;;;;4953466;29;20023;-82
2021/12/05 20:37:33;;;;;;;16.33;6.07;;;;;;;;;;4936300;28;20031;-80
2021/12/05 20:39:59;;;;;;;8.20;5.30;;;;;;;;;;4952942;29;20059;-82